Time,TemperatureF,DewpointF,PressureIn,WindDirection,WindDirectionDegrees,WindSpeedMPH,WindSpeedGustMPH,Humidity,HourlyPrecipIn,Conditions,Clouds,dailyrainin,SoftwareType,DateUTC
2013-01-31 00:00:00,52.5,48.1,29.17,South,189,10.7,25.1,85,0.08,,,0.38,WUHU21623XXSP,2013-01-31 05:00:00,
2013-01-31 00:01:00,52.5,48.1,29.17,SSW,208,11.3,25.1,85,0.10,,,0.00,WUHU21623XXSP,2013-01-31 05:01:00,
2013-01-31 00:06:00,52.5,48.1,29.17,SSE,157,12.8,25.1,85,0.10,,,0.02,WUHU21623XXSP,2013-01-31 05:06:00,
2013-01-31 00:11:00,52.5,48.1,29.16,SSE,157,14.5,14.5,85,0.10,,,0.02,WUHU21623XXSP,2013-01-31 05:11:00,
2013-01-31 00:16:00,52.5,48.1,29.16,South,180,13.2,19.9,85,0.12,,,0.04,WUHU21623XXSP,2013-01-31 05:16:00,
2013-01-31 00:21:00,52.3,47.9,29.16,SSW,193,8.8,19.9,85,0.10,,,0.04,WUHU21623XXSP,2013-01-31 05:21:00,
2013-01-31 00:26:00,52.3,47.9,29.15,SSW,202,4.8,19.7,85,0.13,,,0.07,WUHU21623XXSP,2013-01-31 05:26:00,
2013-01-31 00:31:00,52.3,47.9,29.14,SE,135,7.6,14.3,85,0.15,,,0.09,WUHU21623XXSP,2013-01-31 05:31:00,
2013-01-31 00:36:00,52.3,47.9,29.14,South,180,10.1,14.1,85,0.15,,,0.09,WUHU21623XXSP,2013-01-31 05:36:00,
2013-01-31 00:41:00,52.3,47.9,29.13,SSE,157,11.6,18.1,85,0.13,,,0.09,WUHU21623XXSP,2013-01-31 05:41:00,
2013-01-31 00:46:00,52.3,47.9,29.12,SSW,202,11.2,18.1,85,0.15,,,0.11,WUHU21623XXSP,2013-01-31 05:46:00,
2013-01-31 00:51:00,52.3,47.9,29.12,South,180,8.5,16.6,85,0.15,,,0.11,WUHU21623XXSP,2013-01-31 05:51:00,
2013-01-31 00:56:00,52.3,47.9,29.11,South,176,6.8,16.8,85,0.13,,,0.11,WUHU21623XXSP,2013-01-31 05:56:00,
2013-01-31 01:01:00,52.3,47.9,29.10,SSE,164,15.1,18.1,85,0.11,,,0.11,WUHU21623XXSP,2013-01-31 06:01:00,
2013-01-31 01:06:00,52.3,47.9,29.10,South,180,11.0,18.6,85,0.11,,,0.13,WUHU21623XXSP,2013-01-31 06:06:00,
2013-01-31 01:11:00,52.2,47.8,29.11,SSW,202,6.7,18.6,85,0.11,,,0.13,WUHU21623XXSP,2013-01-31 06:11:00,
2013-01-31 01:16:00,52.2,47.8,29.10,SSW,195,8.4,17.7,85,0.09,,,0.13,WUHU21623XXSP,2013-01-31 06:16:00,
2013-01-31 01:21:00,52.2,47.8,29.10,SSW,208,6.4,17.7,85,0.09,,,0.13,WUHU21623XXSP,2013-01-31 06:21:00,
2013-01-31 01:26:00,52.2,47.8,29.10,SSW,213,4.4,15.9,85,0.06,,,0.13,WUHU21623XXSP,2013-01-31 06:26:00,
2013-01-31 01:31:00,52.2,47.8,29.09,South,178,5.3,15.9,85,0.04,,,0.13,WUHU21623XXSP,2013-01-31 06:31:00,
2013-01-31 01:36:00,52.0,47.6,29.09,SW,225,6.3,16.6,85,0.06,,,0.15,WUHU21623XXSP,2013-01-31 06:36:00,
2013-01-31 01:41:00,52.0,47.6,29.09,South,180,6.3,16.6,85,0.06,,,0.15,WUHU21623XXSP,2013-01-31 06:41:00,
2013-01-31 01:46:00,52.0,47.6,29.09,South,185,7.7,13.0,85,0.06,,,0.17,WUHU21623XXSP,2013-01-31 06:46:00,
2013-01-31 01:51:00,52.0,47.6,29.09,WSW,247,7.4,12.5,85,0.06,,,0.17,WUHU21623XXSP,2013-01-31 06:51:00,
2013-01-31 01:56:00,52.0,47.6,29.08,South,180,15.4,17.7,85,0.06,,,0.17,WUHU21623XXSP,2013-01-31 06:56:00,
2013-01-31 02:01:00,52.0,47.6,29.08,South,180,12.5,17.7,85,0.06,,,0.17,WUHU21623XXSP,2013-01-31 07:01:00,
2013-01-31 02:06:00,52.2,47.8,29.08,SSW,211,6.2,19.5,85,0.06,,,0.19,WUHU21623XXSP,2013-01-31 07:06:00,
2013-01-31 02:11:00,52.2,47.8,29.08,SSW,193,7.6,19.5,85,0.06,,,0.19,WUHU21623XXSP,2013-01-31 07:11:00,
2013-01-31 02:16:00,52.3,48.2,29.07,SSW,202,7.6,17.7,86,0.06,,,0.19,WUHU21623XXSP,2013-01-31 07:16:00,
2013-01-31 02:21:00,52.3,48.2,29.07,SSW,199,3.5,19.9,86,0.08,,,0.21,WUHU21623XXSP,2013-01-31 07:21:00,
2013-01-31 02:26:00,52.3,47.9,29.07,SW,230,4.7,19.9,85,0.08,,,0.21,WUHU21623XXSP,2013-01-31 07:26:00,
2013-01-31 02:31:00,52.3,48.2,29.07,SW,229,7.0,13.0,86,0.06,,,0.21,WUHU21623XXSP,2013-01-31 07:31:00,
2013-01-31 02:36:00,52.3,48.2,29.08,WSW,237,7.1,13.0,86,0.08,,,0.23,WUHU21623XXSP,2013-01-31 07:36:00,
2013-01-31 02:41:00,52.3,48.2,29.07,SW,230,5.4,12.8,86,0.08,,,0.23,WUHU21623XXSP,2013-01-31 07:41:00,
2013-01-31 02:46:00,52.3,48.2,29.07,SSW,202,6.5,16.6,86,0.06,,,0.23,WUHU21623XXSP,2013-01-31 07:46:00,
2013-01-31 02:51:00,52.3,48.2,29.06,WSW,238,3.2,16.6,86,0.06,,,0.23,WUHU21623XXSP,2013-01-31 07:51:00,
2013-01-31 02:56:00,52.3,47.9,29.06,WSW,251,4.9,9.6,85,0.06,,,0.23,WUHU21623XXSP,2013-01-31 07:56:00,
2013-01-31 03:01:00,52.2,47.8,29.07,SW,235,6.1,15.9,85,0.08,,,0.25,WUHU21623XXSP,2013-01-31 08:01:00,
2013-01-31 03:06:00,52.0,47.6,29.11,WSW,241,6.6,15.9,85,0.10,,,0.29,WUHU21623XXSP,2013-01-31 08:06:00,
2013-01-31 03:11:00,51.4,47.0,29.09,NW,315,9.2,15.2,85,0.12,,,0.31,WUHU21623XXSP,2013-01-31 08:11:00,
2013-01-31 03:16:00,50.5,45.8,29.12,WSW,258,10.0,28.9,84,0.14,,,0.33,WUHU21623XXSP,2013-01-31 08:16:00,
2013-01-31 03:21:00,49.1,43.9,29.14,NW,315,6.7,28.9,82,0.12,,,0.33,WUHU21623XXSP,2013-01-31 08:21:00,
2013-01-31 03:27:00,46.8,41.0,29.12,NW,311,7.4,16.1,80,0.14,,,0.35,WUHU21623XXSP,2013-01-31 08:27:00,
2013-01-31 03:32:00,45.1,39.3,29.11,West,270,4.7,16.1,80,0.14,,,0.35,WUHU21623XXSP,2013-01-31 08:32:00,
2013-01-31 03:37:00,43.9,38.5,29.12,West,270,9.8,10.7,81,0.14,,,0.37,WUHU21623XXSP,2013-01-31 08:37:00,
2013-01-31 03:42:00,43.0,37.6,29.14,SSW,202,15.2,15.2,81,0.14,,,0.37,WUHU21623XXSP,2013-01-31 08:42:00,
2013-01-31 03:47:00,42.1,36.7,29.15,NW,307,5.0,15.2,81,0.14,,,0.37,WUHU21623XXSP,2013-01-31 08:47:00,
2013-01-31 03:52:00,41.4,36.0,29.15,WNW,300,4.0,11.4,81,0.16,,,0.39,WUHU21623XXSP,2013-01-31 08:52:00,
2013-01-31 03:57:00,40.5,35.1,29.14,West,277,4.8,23.9,81,0.16,,,0.39,WUHU21623XXSP,2013-01-31 08:57:00,
2013-01-31 04:02:00,39.9,34.6,29.14,West,265,4.8,23.9,81,0.14,,,0.39,WUHU21623XXSP,2013-01-31 09:02:00,
2013-01-31 04:07:00,39.4,34.1,29.16,WSW,247,3.8,10.5,81,0.12,,,0.41,WUHU21623XXSP,2013-01-31 09:07:00,
2013-01-31 04:12:00,39.0,34.0,29.16,West,266,3.0,9.8,82,0.10,,,0.41,WUHU21623XXSP,2013-01-31 09:12:00,
2013-01-31 04:17:00,38.8,33.8,29.14,WNW,297,3.8,12.8,82,0.08,,,0.41,WUHU21623XXSP,2013-01-31 09:17:00,
2013-01-31 04:22:00,38.5,33.5,29.15,West,264,3.3,12.8,82,0.06,,,0.41,WUHU21623XXSP,2013-01-31 09:22:00,
2013-01-31 04:27:00,38.5,33.5,29.15,West,270,9.4,11.2,82,0.06,,,0.41,WUHU21623XXSP,2013-01-31 09:27:00,
2013-01-31 04:32:00,38.1,33.4,29.14,WNW,297,5.4,15.4,83,0.06,,,0.41,WUHU21623XXSP,2013-01-31 09:32:00,
2013-01-31 04:37:00,37.9,32.9,29.14,WSW,253,4.1,15.4,82,0.04,,,0.41,WUHU21623XXSP,2013-01-31 09:37:00,
2013-01-31 04:42:00,37.9,33.2,29.15,WSW,254,3.4,13.6,83,0.04,,,0.41,WUHU21623XXSP,2013-01-31 09:42:00,
2013-01-31 04:47:00,37.9,33.2,29.17,NNW,337,4.3,10.1,83,0.04,,,0.41,WUHU21623XXSP,2013-01-31 09:47:00,
2013-01-31 04:52:00,37.9,33.2,29.15,NW,316,3.0,8.3,83,0.02,,,0.41,WUHU21623XXSP,2013-01-31 09:52:00,
2013-01-31 04:57:00,37.9,33.2,29.14,NW,315,4.5,8.3,83,0.02,,,0.41,WUHU21623XXSP,2013-01-31 09:57:00,
2013-01-31 05:02:00,37.9,33.2,29.14,West,260,1.9,7.4,83,0.02,,,0.41,WUHU21623XXSP,2013-01-31 10:02:00,
2013-01-31 05:07:00,37.9,33.2,29.15,WSW,254,3.3,5.8,83,0.00,,,0.41,WUHU21623XXSP,2013-01-31 10:07:00,
2013-01-31 05:12:00,37.8,33.1,29.14,SSW,193,2.3,5.8,83,0.00,,,0.41,WUHU21623XXSP,2013-01-31 10:12:00,
2013-01-31 05:17:00,37.8,33.1,29.14,West,270,3.6,6.3,83,0.00,,,0.41,WUHU21623XXSP,2013-01-31 10:17:00,
2013-01-31 05:22:00,37.6,32.9,29.15,West,276,3.3,6.3,83,0.00,,,0.41,WUHU21623XXSP,2013-01-31 10:22:00,
2013-01-31 05:27:00,37.4,32.7,29.16,WNW,290,5.0,12.3,83,0.02,,,0.43,WUHU21623XXSP,2013-01-31 10:27:00,
2013-01-31 05:32:00,37.2,32.5,29.16,WNW,292,8.3,12.3,83,0.02,,,0.43,WUHU21623XXSP,2013-01-31 10:32:00,
2013-01-31 05:37:00,37.0,32.0,29.17,WNW,284,5.3,10.7,82,0.02,,,0.43,WUHU21623XXSP,2013-01-31 10:37:00,
2013-01-31 05:42:00,36.7,31.7,29.17,WSW,246,4.1,10.7,82,0.02,,,0.43,WUHU21623XXSP,2013-01-31 10:42:00,
2013-01-31 05:48:00,36.7,31.7,29.17,NW,315,14.1,16.1,82,0.02,,,0.43,WUHU21623XXSP,2013-01-31 10:48:00,
2013-01-31 05:53:00,36.5,31.2,29.17,West,277,4.4,16.1,81,0.02,,,0.43,WUHU21623XXSP,2013-01-31 10:53:00,
2013-01-31 05:58:00,36.3,31.0,29.17,WNW,286,4.2,10.1,81,0.02,,,0.43,WUHU21623XXSP,2013-01-31 10:58:00,
2013-01-31 06:03:00,36.3,30.7,29.18,WNW,288,5.1,17.9,80,0.02,,,0.43,WUHU21623XXSP,2013-01-31 11:03:00,
2013-01-31 06:08:00,36.3,30.7,29.18,WNW,298,4.5,17.9,80,0.02,,,0.43,WUHU21623XXSP,2013-01-31 11:08:00,
2013-01-31 06:13:00,36.1,30.2,29.18,West,266,6.5,11.2,79,0.02,,,0.43,WUHU21623XXSP,2013-01-31 11:13:00,
2013-01-31 06:18:00,36.0,29.5,29.19,WNW,292,14.3,18.1,77,0.02,,,0.43,WUHU21623XXSP,2013-01-31 11:18:00,
2013-01-31 06:23:00,36.0,29.5,29.20,WSW,244,5.1,18.1,77,0.02,,,0.43,WUHU21623XXSP,2013-01-31 11:23:00,
2013-01-31 06:28:00,35.8,29.0,29.21,NW,315,14.5,20.4,76,0.00,,,0.43,WUHU21623XXSP,2013-01-31 11:28:00,
2013-01-31 06:33:00,35.8,28.7,29.21,West,269,8.3,20.4,75,0.00,,,0.43,WUHU21623XXSP,2013-01-31 11:33:00,
2013-01-31 06:38:00,35.4,28.0,29.22,WSW,256,7.9,17.9,74,0.00,,,0.43,WUHU21623XXSP,2013-01-31 11:38:00,
2013-01-31 06:43:00,35.2,27.5,29.22,West,269,10.2,20.1,73,0.00,,,0.43,WUHU21623XXSP,2013-01-31 11:43:00,
2013-01-31 06:48:00,34.9,27.2,29.23,West,281,7.3,20.1,73,0.00,,,0.43,WUHU21623XXSP,2013-01-31 11:48:00,
2013-01-31 06:53:00,34.9,27.2,29.23,WNW,286,6.3,17.4,73,0.00,,,0.43,WUHU21623XXSP,2013-01-31 11:53:00,
2013-01-31 06:58:00,34.7,26.7,29.24,South,180,11.9,14.3,72,0.00,,,0.43,WUHU21623XXSP,2013-01-31 11:58:00,
2013-01-31 07:03:00,34.7,26.7,29.24,WNW,298,4.2,14.3,72,0.00,,,0.43,WUHU21623XXSP,2013-01-31 12:03:00,
2013-01-31 07:08:00,34.5,26.8,29.25,WNW,292,4.7,15.2,73,0.00,,,0.43,WUHU21623XXSP,2013-01-31 12:08:00,
2013-01-31 07:13:00,34.3,26.6,29.24,West,261,8.5,21.5,73,0.00,,,0.43,WUHU21623XXSP,2013-01-31 12:13:00,
2013-01-31 07:18:00,34.3,26.6,29.25,WNW,292,8.9,21.5,73,0.00,,,0.43,WUHU21623XXSP,2013-01-31 12:18:00,
2013-01-31 07:23:00,34.3,25.6,29.26,West,273,7.8,18.3,70,0.00,,,0.43,WUHU21623XXSP,2013-01-31 12:23:00,
2013-01-31 07:28:00,34.2,25.2,29.27,NE,45,7.4,20.6,69,0.00,,,0.43,WUHU21623XXSP,2013-01-31 12:28:00,
2013-01-31 07:33:00,34.0,25.3,29.27,NW,315,4.9,20.6,70,0.00,,,0.43,WUHU21623XXSP,2013-01-31 12:33:00,
2013-01-31 07:38:00,34.0,25.0,29.27,West,279,6.7,15.7,69,0.00,,,0.43,WUHU21623XXSP,2013-01-31 12:38:00,
2013-01-31 07:43:00,34.0,25.0,29.28,South,180,14.1,17.9,69,0.00,,,0.43,WUHU21623XXSP,2013-01-31 12:43:00,
2013-01-31 07:48:00,33.8,24.8,29.28,WNW,292,7.4,17.9,69,0.00,,,0.43,WUHU21623XXSP,2013-01-31 12:48:00,
2013-01-31 07:53:00,33.6,24.2,29.29,West,276,7.1,15.7,68,0.00,,,0.43,WUHU21623XXSP,2013-01-31 12:53:00,
2013-01-31 07:58:00,33.6,24.2,29.30,WSW,247,8.4,24.2,68,0.00,,,0.43,WUHU21623XXSP,2013-01-31 12:58:00,
2013-01-31 08:03:00,33.4,23.7,29.31,West,279,7.1,24.2,67,0.00,,,0.43,WUHU21623XXSP,2013-01-31 13:03:00,
2013-01-31 08:08:00,33.1,22.3,29.31,WSW,247,18.3,19.2,64,0.00,,,0.43,WUHU21623XXSP,2013-01-31 13:08:00,
2013-01-31 08:13:00,32.7,22.3,29.31,WSW,247,11.6,32.0,65,0.00,,,0.43,WUHU21623XXSP,2013-01-31 13:13:00,
2013-01-31 08:18:00,32.7,22.7,29.31,SW,225,4.7,32.0,66,0.00,,,0.43,WUHU21623XXSP,2013-01-31 13:18:00,
2013-01-31 08:23:00,32.5,22.8,29.32,SE,135,5.4,19.0,67,0.00,,,0.43,WUHU21623XXSP,2013-01-31 13:23:00,
2013-01-31 08:28:00,32.5,22.1,29.32,WNW,301,4.1,29.5,65,0.00,,,0.43,WUHU21623XXSP,2013-01-31 13:28:00,
2013-01-31 08:33:00,32.4,22.0,29.33,West,279,4.8,29.5,65,0.00,,,0.43,WUHU21623XXSP,2013-01-31 13:33:00,
2013-01-31 08:38:00,32.2,22.2,29.34,West,267,4.3,16.6,66,0.00,,,0.43,WUHU21623XXSP,2013-01-31 13:38:00,
2013-01-31 08:43:00,32.2,22.5,29.34,WNW,292,9.4,15.7,67,0.00,,,0.43,WUHU21623XXSP,2013-01-31 13:43:00,
2013-01-31 08:48:00,31.8,22.2,29.35,West,265,5.7,13.4,67,0.00,,,0.43,WUHU21623XXSP,2013-01-31 13:48:00,
2013-01-31 08:53:00,31.8,22.2,29.34,West,277,4.1,18.1,67,0.00,,,0.43,WUHU21623XXSP,2013-01-31 13:53:00,
2013-01-31 08:58:00,31.8,21.8,29.34,NW,315,7.6,19.7,66,0.00,,,0.43,WUHU21623XXSP,2013-01-31 13:58:00,
2013-01-31 09:03:00,31.6,22.3,29.35,WNW,292,8.5,19.7,68,0.00,,,0.43,WUHU21623XXSP,2013-01-31 14:03:00,
2013-01-31 09:08:00,31.6,22.0,29.35,WSW,249,6.1,15.4,67,0.00,,,0.43,WUHU21623XXSP,2013-01-31 14:08:00,
2013-01-31 09:13:00,31.5,21.5,29.35,West,264,7.5,19.5,66,0.00,,,0.43,WUHU21623XXSP,2013-01-31 14:13:00,
2013-01-31 09:18:00,31.6,21.6,29.35,WNW,292,8.5,19.5,66,0.00,,,0.43,WUHU21623XXSP,2013-01-31 14:18:00,
2013-01-31 09:23:00,31.3,21.0,29.35,WNW,290,4.4,15.4,65,0.00,,,0.43,WUHU21623XXSP,2013-01-31 14:23:00,
2013-01-31 09:28:00,31.3,21.3,29.37,WSW,247,6.3,15.4,66,0.00,,,0.43,WUHU21623XXSP,2013-01-31 14:28:00,
2013-01-31 09:33:00,31.1,21.1,29.37,West,281,5.3,15.0,66,0.00,,,0.43,WUHU21623XXSP,2013-01-31 14:33:00,
2013-01-31 09:38:00,31.1,20.8,29.37,West,264,5.4,15.0,65,0.00,,,0.43,WUHU21623XXSP,2013-01-31 14:38:00,
2013-01-31 09:43:00,31.3,21.3,29.38,NW,315,4.5,9.8,66,0.00,,,0.43,WUHU21623XXSP,2013-01-31 14:43:00,
2013-01-31 09:48:00,31.3,21.3,29.37,West,260,4.3,14.1,66,0.00,,,0.43,WUHU21623XXSP,2013-01-31 14:48:00,
2013-01-31 09:53:00,31.3,21.3,29.38,NW,310,7.6,14.1,66,0.00,,,0.43,WUHU21623XXSP,2013-01-31 14:53:00,
2013-01-31 09:58:00,31.1,21.1,29.38,WNW,292,6.5,13.4,66,0.00,,,0.43,WUHU21623XXSP,2013-01-31 14:58:00,
2013-01-31 10:03:00,30.9,21.3,29.38,WNW,282,4.4,13.4,67,0.00,,,0.43,WUHU21623XXSP,2013-01-31 15:03:00,
2013-01-31 10:08:00,30.9,21.6,29.38,West,262,6.0,19.7,68,0.00,,,0.43,WUHU21623XXSP,2013-01-31 15:08:00,
2013-01-31 10:13:00,31.1,21.1,29.38,NW,309,5.6,22.1,66,0.00,,,0.43,WUHU21623XXSP,2013-01-31 15:13:00,
2013-01-31 10:18:00,31.1,21.1,29.38,West,278,5.2,22.1,66,0.00,,,0.43,WUHU21623XXSP,2013-01-31 15:18:00,
2013-01-31 10:23:00,31.1,20.4,29.38,West,275,9.6,20.6,64,0.00,,,0.43,WUHU21623XXSP,2013-01-31 15:23:00,
2013-01-31 10:28:00,30.9,20.2,29.39,SW,225,6.9,23.7,64,0.00,,,0.43,WUHU21623XXSP,2013-01-31 15:28:00,
2013-01-31 10:33:00,30.9,20.2,29.39,West,279,6.1,23.7,64,0.00,,,0.43,WUHU21623XXSP,2013-01-31 15:33:00,
2013-01-31 10:38:00,31.1,20.8,29.40,WNW,282,3.3,13.0,65,0.00,,,0.43,WUHU21623XXSP,2013-01-31 15:38:00,
2013-01-31 10:43:00,31.1,20.4,29.40,West,279,6.4,23.0,64,0.00,,,0.43,WUHU21623XXSP,2013-01-31 15:43:00,
2013-01-31 10:48:00,30.9,19.5,29.40,WSW,256,8.7,23.0,62,0.00,,,0.43,WUHU21623XXSP,2013-01-31 15:48:00,
2013-01-31 10:53:00,30.9,19.8,29.40,West,268,5.9,21.7,63,0.00,,,0.43,WUHU21623XXSP,2013-01-31 15:53:00,
2013-01-31 10:58:00,31.1,19.6,29.40,WNW,284,7.9,14.8,62,0.00,,,0.43,WUHU21623XXSP,2013-01-31 15:58:00,
2013-01-31 11:03:00,31.1,19.6,29.40,NW,315,12.1,15.0,62,0.00,,,0.43,WUHU21623XXSP,2013-01-31 16:03:00,
2013-01-31 11:08:00,31.3,19.5,29.41,SW,225,8.5,15.0,61,0.00,,,0.43,WUHU21623XXSP,2013-01-31 16:08:00,
2013-01-31 11:13:00,31.6,19.3,29.41,NW,317,5.5,13.9,60,0.00,,,0.43,WUHU21623XXSP,2013-01-31 16:13:00,
2013-01-31 11:18:00,31.5,19.3,29.41,WNW,303,5.2,15.0,60,0.00,,,0.43,WUHU21623XXSP,2013-01-31 16:18:00,
2013-01-31 11:23:00,31.3,19.1,29.41,WNW,288,6.2,15.0,60,0.00,,,0.43,WUHU21623XXSP,2013-01-31 16:23:00,
2013-01-31 11:28:00,31.3,19.1,29.42,West,275,5.8,18.1,60,0.00,,,0.43,WUHU21623XXSP,2013-01-31 16:28:00,
2013-01-31 11:33:00,31.3,18.7,29.42,West,277,4.6,18.1,59,0.00,,,0.43,WUHU21623XXSP,2013-01-31 16:33:00,
2013-01-31 11:38:00,31.3,18.7,29.41,WSW,254,9.8,22.1,59,0.00,,,0.43,WUHU21623XXSP,2013-01-31 16:38:00,
2013-01-31 11:43:00,31.6,18.9,29.42,WNW,285,6.4,22.1,59,0.00,,,0.43,WUHU21623XXSP,2013-01-31 16:43:00,
2013-01-31 11:48:00,31.6,18.9,29.42,West,268,4.2,13.9,59,0.00,,,0.43,WUHU21623XXSP,2013-01-31 16:48:00,
2013-01-31 11:53:00,31.8,19.5,29.43,WSW,257,3.1,11.4,60,0.00,,,0.43,WUHU21623XXSP,2013-01-31 16:53:00,
2013-01-31 11:58:00,31.8,19.9,29.43,WNW,292,6.5,13.2,61,0.00,,,0.43,WUHU21623XXSP,2013-01-31 16:58:00,
2013-01-31 12:03:00,31.8,19.1,29.43,NW,315,8.3,17.0,59,0.00,,,0.43,WUHU21623XXSP,2013-01-31 17:03:00,
2013-01-31 12:08:00,31.8,18.7,29.43,West,268,6.0,17.0,58,0.00,,,0.43,WUHU21623XXSP,2013-01-31 17:08:00,
2013-01-31 12:13:00,31.8,17.9,29.43,West,267,7.9,18.6,56,0.00,,,0.43,WUHU21623XXSP,2013-01-31 17:13:00,
2013-01-31 12:18:00,32.0,18.5,29.43,WNW,289,7.5,18.6,57,0.00,,,0.43,WUHU21623XXSP,2013-01-31 17:18:00,
2013-01-31 12:23:00,32.2,18.3,29.43,WNW,294,7.0,16.8,56,0.00,,,0.43,WUHU21623XXSP,2013-01-31 17:23:00,
2013-01-31 12:28:00,32.5,19.4,29.44,NW,315,6.3,16.8,58,0.00,,,0.43,WUHU21623XXSP,2013-01-31 17:28:00,
2013-01-31 12:33:00,32.5,18.5,29.44,West,270,11.2,22.1,56,0.00,,,0.43,WUHU21623XXSP,2013-01-31 17:33:00,
2013-01-31 12:38:00,32.5,18.5,29.44,WNW,282,6.8,22.1,56,0.00,,,0.43,WUHU21623XXSP,2013-01-31 17:38:00,
2013-01-31 12:43:00,32.2,18.3,29.44,WSW,247,6.9,15.4,56,0.00,,,0.43,WUHU21623XXSP,2013-01-31 17:43:00,
2013-01-31 12:48:00,31.6,18.1,29.44,West,270,8.1,15.0,57,0.00,,,0.43,WUHU21623XXSP,2013-01-31 17:48:00,
2013-01-31 12:53:00,31.3,18.3,29.45,WSW,257,6.3,17.2,58,0.00,,,0.43,WUHU21623XXSP,2013-01-31 17:53:00,
2013-01-31 12:58:00,31.1,18.5,29.45,West,270,12.8,17.2,59,0.00,,,0.43,WUHU21623XXSP,2013-01-31 17:58:00,
2013-01-31 13:03:00,31.1,18.5,29.45,West,269,8.2,18.3,59,0.00,,,0.43,WUHU21623XXSP,2013-01-31 18:03:00,
2013-01-31 13:08:00,30.9,18.3,29.45,ENE,67,6.3,19.9,59,0.00,,,0.43,WUHU21623XXSP,2013-01-31 18:08:00,
2013-01-31 13:13:00,30.9,18.3,29.45,West,275,4.6,19.9,59,0.00,,,0.43,WUHU21623XXSP,2013-01-31 18:13:00,
2013-01-31 13:18:00,30.9,18.7,29.45,WNW,292,14.3,19.2,60,0.00,,,0.43,WUHU21623XXSP,2013-01-31 18:18:00,
2013-01-31 13:23:00,31.6,19.3,29.45,WSW,242,2.9,17.2,60,0.00,,,0.43,WUHU21623XXSP,2013-01-31 18:23:00,
2013-01-31 13:28:00,31.6,18.5,29.46,WNW,294,8.0,18.8,58,0.00,,,0.43,WUHU21623XXSP,2013-01-31 18:28:00,
2013-01-31 13:33:00,31.3,17.4,29.46,WNW,287,5.4,18.8,56,0.00,,,0.43,WUHU21623XXSP,2013-01-31 18:33:00,
2013-01-31 13:38:00,30.9,17.9,29.47,WNW,298,5.8,16.6,58,0.00,,,0.43,WUHU21623XXSP,2013-01-31 18:38:00,
2013-01-31 13:43:00,30.7,17.3,29.47,NW,315,6.0,19.9,57,0.00,,,0.43,WUHU21623XXSP,2013-01-31 18:43:00,
2013-01-31 13:48:00,30.4,16.2,29.47,WNW,300,6.7,19.9,55,0.00,,,0.43,WUHU21623XXSP,2013-01-31 18:48:00,
2013-01-31 13:53:00,30.2,16.4,29.47,NW,315,8.9,16.1,56,0.00,,,0.43,WUHU21623XXSP,2013-01-31 18:53:00,
2013-01-31 13:58:00,30.0,15.8,29.46,NNW,337,6.3,11.6,55,0.00,,,0.43,WUHU21623XXSP,2013-01-31 18:58:00,
2013-01-31 14:03:00,30.0,16.2,29.47,NNW,337,10.7,15.2,56,0.00,,,0.43,WUHU21623XXSP,2013-01-31 19:03:00,
2013-01-31 14:08:00,30.0,15.8,29.47,WSW,247,8.5,15.2,55,0.00,,,0.43,WUHU21623XXSP,2013-01-31 19:08:00,
2013-01-31 14:13:00,30.0,15.8,29.47,West,270,6.9,13.4,55,0.00,,,0.43,WUHU21623XXSP,2013-01-31 19:13:00,
2013-01-31 14:18:00,30.0,16.2,29.48,West,270,6.7,16.1,56,0.00,,,0.43,WUHU21623XXSP,2013-01-31 19:18:00,
2013-01-31 14:23:00,30.0,15.8,29.48,West,261,5.6,16.1,55,0.00,,,0.43,WUHU21623XXSP,2013-01-31 19:23:00,
2013-01-31 14:28:00,30.0,15.8,29.48,West,271,5.4,15.0,55,0.00,,,0.43,WUHU21623XXSP,2013-01-31 19:28:00,
2013-01-31 14:33:00,29.8,16.0,29.48,NW,315,13.4,15.0,56,0.00,,,0.43,WUHU21623XXSP,2013-01-31 19:33:00,
2013-01-31 14:38:00,29.7,16.3,29.49,WNW,287,4.2,15.0,57,0.00,,,0.43,WUHU21623XXSP,2013-01-31 19:38:00,
2013-01-31 14:44:00,29.3,16.4,29.49,North,0,5.8,15.9,58,0.00,,,0.43,WUHU21623XXSP,2013-01-31 19:44:00,
2013-01-31 14:49:00,29.1,16.6,29.50,North,0,9.4,15.9,59,0.00,,,0.43,WUHU21623XXSP,2013-01-31 19:49:00,
2013-01-31 14:54:00,29.1,17.4,29.50,WSW,247,9.8,11.0,61,0.00,,,0.43,WUHU21623XXSP,2013-01-31 19:54:00,
2013-01-31 14:59:00,29.1,17.4,29.50,SW,225,10.5,11.0,61,0.00,,,0.43,WUHU21623XXSP,2013-01-31 19:59:00,
2013-01-31 15:04:00,28.9,17.6,29.51,NW,312,4.8,10.7,62,0.00,,,0.43,WUHU21623XXSP,2013-01-31 20:04:00,
2013-01-31 15:08:00,28.8,17.5,29.51,NW,313,6.0,10.1,62,0.00,,,0.43,WUHU21623XXSP,2013-01-31 20:08:00,
2013-01-31 15:13:00,28.6,17.7,29.52,WNW,292,6.5,11.9,63,0.00,,,0.43,WUHU21623XXSP,2013-01-31 20:13:00,
2013-01-31 15:18:00,28.2,17.3,29.52,WNW,285,5.0,14.1,63,0.00,,,0.43,WUHU21623XXSP,2013-01-31 20:18:00,
2013-01-31 15:23:00,28.2,17.3,29.52,WNW,302,5.0,14.1,63,0.00,,,0.43,WUHU21623XXSP,2013-01-31 20:23:00,
2013-01-31 15:28:00,28.6,17.7,29.52,WNW,283,4.4,10.3,63,0.00,,,0.43,WUHU21623XXSP,2013-01-31 20:28:00,
2013-01-31 15:33:00,28.8,17.5,29.52,NW,315,8.5,10.3,62,0.00,,,0.43,WUHU21623XXSP,2013-01-31 20:33:00,
2013-01-31 15:38:00,28.6,17.3,29.53,WNW,292,9.4,9.4,62,0.00,,,0.43,WUHU21623XXSP,2013-01-31 20:38:00,
2013-01-31 15:43:00,28.6,17.7,29.53,WNW,302,4.8,10.5,63,0.00,,,0.43,WUHU21623XXSP,2013-01-31 20:43:00,
2013-01-31 15:48:00,28.2,17.3,29.53,NNW,337,6.5,11.0,63,0.00,,,0.43,WUHU21623XXSP,2013-01-31 20:48:00,
2013-01-31 15:53:00,28.0,17.1,29.54,WNW,298,5.5,12.3,63,0.00,,,0.43,WUHU21623XXSP,2013-01-31 20:53:00,
2013-01-31 15:58:00,27.7,16.8,29.54,WNW,295,7.8,18.8,63,0.00,,,0.43,WUHU21623XXSP,2013-01-31 20:58:00,
2013-01-31 16:03:00,27.5,15.9,29.54,West,270,10.5,18.8,61,0.00,,,0.43,WUHU21623XXSP,2013-01-31 21:03:00,
2013-01-31 16:08:00,27.5,15.5,29.54,West,270,7.4,16.6,60,0.00,,,0.43,WUHU21623XXSP,2013-01-31 21:08:00,
2013-01-31 16:13:00,27.5,15.5,29.54,West,267,7.4,15.4,60,0.00,,,0.43,WUHU21623XXSP,2013-01-31 21:13:00,
2013-01-31 16:18:00,27.7,15.7,29.54,WNW,292,7.6,14.1,60,0.00,,,0.43,WUHU21623XXSP,2013-01-31 21:18:00,
2013-01-31 16:23:00,27.7,15.7,29.55,WNW,300,4.2,11.9,60,0.00,,,0.43,WUHU21623XXSP,2013-01-31 21:23:00,
2013-01-31 16:28:00,27.7,15.7,29.55,WSW,247,17.0,17.0,60,0.00,,,0.43,WUHU21623XXSP,2013-01-31 21:28:00,
2013-01-31 16:33:00,27.5,15.1,29.55,WNW,303,5.0,17.0,59,0.00,,,0.43,WUHU21623XXSP,2013-01-31 21:33:00,
2013-01-31 16:38:00,27.5,15.5,29.56,WNW,303,6.4,17.0,60,0.00,,,0.43,WUHU21623XXSP,2013-01-31 21:38:00,
2013-01-31 16:43:00,27.3,14.9,29.56,NW,304,5.8,13.9,59,0.00,,,0.43,WUHU21623XXSP,2013-01-31 21:43:00,
2013-01-31 16:48:00,27.1,15.1,29.57,West,280,4.7,13.9,60,0.00,,,0.43,WUHU21623XXSP,2013-01-31 21:48:00,
2013-01-31 16:53:00,27.0,15.0,29.57,NW,309,5.4,11.6,60,0.00,,,0.43,WUHU21623XXSP,2013-01-31 21:53:00,
2013-01-31 16:58:00,27.0,15.0,29.57,WNW,292,13.0,13.0,60,0.00,,,0.43,WUHU21623XXSP,2013-01-31 21:58:00,
2013-01-31 17:03:00,26.8,14.8,29.57,NNW,337,5.6,13.2,60,0.00,,,0.43,WUHU21623XXSP,2013-01-31 22:03:00,
2013-01-31 17:08:00,26.6,14.6,29.58,WNW,299,8.0,16.3,60,0.00,,,0.43,WUHU21623XXSP,2013-01-31 22:08:00,
2013-01-31 17:13:00,26.6,14.6,29.58,WNW,284,5.5,16.3,60,0.00,,,0.43,WUHU21623XXSP,2013-01-31 22:13:00,
2013-01-31 17:18:00,26.4,14.4,29.58,West,265,7.2,15.7,60,0.00,,,0.43,WUHU21623XXSP,2013-01-31 22:18:00,
2013-01-31 17:23:00,26.4,14.4,29.58,WNW,291,5.2,16.3,60,0.00,,,0.43,WUHU21623XXSP,2013-01-31 22:23:00,
2013-01-31 17:28:00,26.4,14.8,29.58,WNW,294,5.2,16.3,61,0.00,,,0.43,WUHU21623XXSP,2013-01-31 22:28:00,
2013-01-31 17:33:00,26.4,15.2,29.58,West,264,4.7,12.8,62,0.00,,,0.43,WUHU21623XXSP,2013-01-31 22:33:00,
2013-01-31 17:38:00,26.2,15.0,29.59,West,280,6.1,12.8,62,0.00,,,0.43,WUHU21623XXSP,2013-01-31 22:38:00,
2013-01-31 17:43:00,26.2,15.0,29.59,West,278,2.6,15.0,62,0.00,,,0.43,WUHU21623XXSP,2013-01-31 22:43:00,
2013-01-31 17:48:00,26.2,15.0,29.60,NW,315,11.2,15.0,62,0.00,,,0.43,WUHU21623XXSP,2013-01-31 22:48:00,
2013-01-31 17:53:00,26.2,15.0,29.60,NW,324,6.8,16.3,62,0.00,,,0.43,WUHU21623XXSP,2013-01-31 22:53:00,
2013-01-31 17:58:00,26.1,15.3,29.61,NNW,337,5.0,16.3,63,0.00,,,0.43,WUHU21623XXSP,2013-01-31 22:58:00,
2013-01-31 18:04:00,25.7,16.0,29.60,WNW,292,5.8,9.8,66,0.00,,,0.43,WUHU21623XXSP,2013-01-31 23:04:00,
2013-01-31 18:09:00,25.5,16.1,29.61,WNW,293,5.3,10.1,67,0.00,,,0.43,WUHU21623XXSP,2013-01-31 23:09:00,
2013-01-31 18:14:00,25.2,16.5,29.61,WNW,292,5.6,10.1,69,0.00,,,0.43,WUHU21623XXSP,2013-01-31 23:14:00,
2013-01-31 18:19:00,25.2,16.5,29.61,WSW,247,7.8,9.6,69,0.00,,,0.43,WUHU21623XXSP,2013-01-31 23:19:00,
2013-01-31 18:24:00,25.0,16.3,29.61,WNW,298,3.4,7.8,69,0.00,,,0.43,WUHU21623XXSP,2013-01-31 23:24:00,
2013-01-31 18:29:00,25.2,16.5,29.61,West,281,5.7,8.7,69,0.00,,,0.43,WUHU21623XXSP,2013-01-31 23:29:00,
2013-01-31 18:34:00,25.2,16.5,29.62,NNW,327,6.5,14.8,69,0.00,,,0.43,WUHU21623XXSP,2013-01-31 23:34:00,
2013-01-31 18:39:00,25.0,17.0,29.62,NW,311,7.0,14.8,71,0.00,,,0.43,WUHU21623XXSP,2013-01-31 23:39:00,
2013-01-31 18:44:00,24.4,17.0,29.63,WNW,300,7.9,12.3,73,0.00,,,0.43,WUHU21623XXSP,2013-01-31 23:44:00,
2013-01-31 18:49:00,23.9,16.9,29.63,NNW,330,4.8,12.3,74,0.00,,,0.43,WUHU21623XXSP,2013-01-31 23:49:00,
2013-01-31 18:54:00,23.5,16.5,29.63,WNW,288,4.3,12.3,74,0.00,,,0.43,WUHU21623XXSP,2013-01-31 23:54:00,
2013-01-31 18:59:00,23.5,16.5,29.63,WNW,299,4.2,12.3,74,0.00,,,0.43,WUHU21623XXSP,2013-01-31 23:59:00,
2013-01-31 19:04:00,23.5,16.8,29.64,West,266,5.2,10.5,75,0.00,,,0.43,WUHU21623XXSP,2013-02-01 00:04:00,
2013-01-31 19:09:00,23.5,16.8,29.64,West,280,3.8,11.9,75,0.00,,,0.43,WUHU21623XXSP,2013-02-01 00:09:00,
2013-01-31 19:14:00,23.7,17.0,29.64,WNW,293,4.6,13.2,75,0.00,,,0.43,WUHU21623XXSP,2013-02-01 00:14:00,
2013-01-31 19:19:00,23.9,16.9,29.64,NW,315,8.1,13.2,74,0.00,,,0.43,WUHU21623XXSP,2013-02-01 00:19:00,
2013-01-31 19:24:00,24.1,17.0,29.64,West,270,6.3,11.2,74,0.00,,,0.43,WUHU21623XXSP,2013-02-01 00:24:00,
2013-01-31 19:29:00,24.1,17.4,29.64,West,280,6.2,12.5,75,0.00,,,0.43,WUHU21623XXSP,2013-02-01 00:29:00,
2013-01-31 19:34:00,24.1,17.0,29.64,West,270,10.5,13.2,74,0.00,,,0.43,WUHU21623XXSP,2013-02-01 00:34:00,
2013-01-31 19:39:00,24.1,17.0,29.64,SSE,157,5.8,13.2,74,0.00,,,0.43,WUHU21623XXSP,2013-02-01 00:39:00,
2013-01-31 19:44:00,24.1,17.4,29.65,WNW,296,4.6,10.1,75,0.00,,,0.43,WUHU21623XXSP,2013-02-01 00:44:00,
2013-01-31 19:49:00,23.9,17.5,29.65,SW,234,3.2,10.1,76,0.00,,,0.43,WUHU21623XXSP,2013-02-01 00:49:00,
2013-01-31 19:54:00,23.5,17.4,29.65,WNW,292,6.7,14.5,77,0.00,,,0.43,WUHU21623XXSP,2013-02-01 00:54:00,
2013-01-31 20:00:00,23.4,17.3,29.65,WSW,247,5.6,14.5,77,0.00,,,0.43,WUHU21623XXSP,2013-02-01 01:00:00,
2013-01-31 20:05:00,23.2,17.4,29.65,NNW,337,6.0,12.8,78,0.00,,,0.43,WUHU21623XXSP,2013-02-01 01:05:00,
2013-01-31 20:10:00,22.8,17.0,29.65,WSW,247,10.1,14.3,78,0.00,,,0.43,WUHU21623XXSP,2013-02-01 01:10:00,
2013-01-31 20:15:00,22.8,17.0,29.65,WNW,292,11.6,14.3,78,0.00,,,0.43,WUHU21623XXSP,2013-02-01 01:15:00,
2013-01-31 20:20:00,22.8,17.0,29.65,WSW,247,7.6,11.6,78,0.00,,,0.43,WUHU21623XXSP,2013-02-01 01:20:00,
2013-01-31 20:25:00,22.8,17.0,29.65,WNW,292,4.7,13.4,78,0.00,,,0.43,WUHU21623XXSP,2013-02-01 01:25:00,
2013-01-31 20:30:00,22.8,17.0,29.65,West,270,2.9,13.4,78,0.00,,,0.43,WUHU21623XXSP,2013-02-01 01:30:00,
2013-01-31 20:35:00,22.8,17.0,29.65,WNW,296,3.2,8.5,78,0.00,,,0.43,WUHU21623XXSP,2013-02-01 01:35:00,
2013-01-31 20:40:00,22.8,17.0,29.65,West,268,2.6,8.1,78,0.00,,,0.43,WUHU21623XXSP,2013-02-01 01:40:00,
2013-01-31 20:45:00,22.8,17.0,29.65,West,270,6.9,12.3,78,0.00,,,0.43,WUHU21623XXSP,2013-02-01 01:45:00,
2013-01-31 20:50:00,22.8,17.0,29.66,WNW,292,3.6,13.0,78,0.00,,,0.43,WUHU21623XXSP,2013-02-01 01:50:00,
2013-01-31 20:55:00,22.8,17.3,29.66,WNW,285,4.2,15.4,79,0.00,,,0.43,WUHU21623XXSP,2013-02-01 01:55:00,
2013-01-31 21:00:00,22.5,17.0,29.66,WNW,288,4.6,15.4,79,0.00,,,0.43,WUHU21623XXSP,2013-02-01 02:00:00,
2013-01-31 21:05:00,22.1,16.6,29.66,West,276,3.0,11.6,79,0.00,,,0.43,WUHU21623XXSP,2013-02-01 02:05:00,
2013-01-31 21:10:00,22.1,16.6,29.66,WNW,292,4.0,7.8,79,0.00,,,0.43,WUHU21623XXSP,2013-02-01 02:10:00,
2013-01-31 21:15:00,22.1,16.6,29.67,WNW,294,3.3,12.3,79,0.00,,,0.43,WUHU21623XXSP,2013-02-01 02:15:00,
2013-01-31 21:20:00,22.1,16.6,29.66,NW,314,6.0,12.3,79,0.00,,,0.43,WUHU21623XXSP,2013-02-01 02:20:00,
2013-01-31 21:25:00,22.1,16.6,29.66,WSW,247,6.5,10.1,79,0.00,,,0.43,WUHU21623XXSP,2013-02-01 02:25:00,
2013-01-31 21:30:00,21.9,16.4,29.66,WSW,247,4.6,8.3,79,0.00,,,0.43,WUHU21623XXSP,2013-02-01 02:30:00,
2013-01-31 21:35:00,22.1,16.6,29.66,West,277,5.2,14.5,79,0.00,,,0.43,WUHU21623XXSP,2013-02-01 02:35:00,
2013-01-31 21:40:00,22.1,16.6,29.67,West,261,5.4,14.5,79,0.00,,,0.43,WUHU21623XXSP,2013-02-01 02:40:00,
2013-01-31 21:45:00,21.9,16.4,29.67,WSW,257,5.2,13.6,79,0.00,,,0.43,WUHU21623XXSP,2013-02-01 02:45:00,
2013-01-31 21:50:00,21.9,16.4,29.67,WSW,257,4.7,13.6,79,0.00,,,0.43,WUHU21623XXSP,2013-02-01 02:50:00,
2013-01-31 21:55:00,21.9,16.4,29.67,WNW,292,6.9,19.2,79,0.00,,,0.43,WUHU21623XXSP,2013-02-01 02:55:00,
2013-01-31 22:00:00,21.7,16.2,29.67,West,263,5.2,19.2,79,0.00,,,0.43,WUHU21623XXSP,2013-02-01 03:00:00,
2013-01-31 22:05:00,21.7,16.2,29.68,WSW,246,3.8,10.5,79,0.00,,,0.43,WUHU21623XXSP,2013-02-01 03:05:00,
2013-01-31 22:10:00,21.7,16.2,29.68,West,272,4.9,12.1,79,0.00,,,0.43,WUHU21623XXSP,2013-02-01 03:10:00,
2013-01-31 22:15:00,21.6,16.1,29.68,West,270,3.5,12.1,79,0.00,,,0.43,WUHU21623XXSP,2013-02-01 03:15:00,
2013-01-31 22:20:00,21.6,16.1,29.68,West,270,4.9,8.1,79,0.00,,,0.43,WUHU21623XXSP,2013-02-01 03:20:00,
2013-01-31 22:25:00,21.4,15.9,29.68,WNW,291,3.0,9.8,79,0.00,,,0.43,WUHU21623XXSP,2013-02-01 03:25:00,
2013-01-31 22:30:00,21.4,15.9,29.68,West,279,4.1,10.7,79,0.00,,,0.43,WUHU21623XXSP,2013-02-01 03:30:00,
2013-01-31 22:35:00,21.4,15.9,29.68,WSW,250,6.2,11.9,79,0.00,,,0.43,WUHU21623XXSP,2013-02-01 03:35:00,
2013-01-31 22:40:00,21.2,15.4,29.68,West,266,2.4,12.8,78,0.00,,,0.43,WUHU21623XXSP,2013-02-01 03:40:00,
2013-01-31 22:45:00,21.0,15.2,29.68,WNW,301,3.9,12.8,78,0.00,,,0.43,WUHU21623XXSP,2013-02-01 03:45:00,
2013-01-31 22:50:00,21.0,15.2,29.68,West,265,3.0,9.4,78,0.00,,,0.43,WUHU21623XXSP,2013-02-01 03:50:00,
2013-01-31 22:55:00,21.0,15.2,29.68,WSW,247,5.4,9.4,78,0.00,,,0.43,WUHU21623XXSP,2013-02-01 03:55:00,
2013-01-31 23:00:00,21.0,15.2,29.68,WSW,255,5.5,17.2,78,0.00,,,0.43,WUHU21623XXSP,2013-02-01 04:00:00,
2013-01-31 23:05:00,21.0,15.2,29.68,WSW,247,0.2,17.2,78,0.00,,,0.43,WUHU21623XXSP,2013-02-01 04:05:00,
2013-01-31 23:10:00,20.8,15.0,29.69,SSW,202,3.4,6.7,78,0.00,,,0.43,WUHU21623XXSP,2013-02-01 04:10:00,
2013-01-31 23:15:00,20.8,15.0,29.69,West,262,3.0,11.4,78,0.00,,,0.43,WUHU21623XXSP,2013-02-01 04:15:00,
2013-01-31 23:20:00,20.5,14.5,29.69,WNW,292,4.8,13.2,77,0.00,,,0.43,WUHU21623XXSP,2013-02-01 04:20:00,
2013-01-31 23:25:00,20.5,14.5,29.69,WSW,251,3.2,13.2,77,0.00,,,0.43,WUHU21623XXSP,2013-02-01 04:25:00,
2013-01-31 23:30:00,20.3,14.3,29.69,West,269,3.1,8.7,77,0.00,,,0.43,WUHU21623XXSP,2013-02-01 04:30:00,
2013-01-31 23:35:00,20.1,13.8,29.69,West,263,3.6,12.1,76,0.00,,,0.43,WUHU21623XXSP,2013-02-01 04:35:00,
2013-01-31 23:40:00,19.9,13.6,29.69,WNW,292,3.6,12.1,76,0.00,,,0.43,WUHU21623XXSP,2013-02-01 04:40:00,
2013-01-31 23:45:00,19.9,13.6,29.69,West,274,4.6,10.3,76,0.00,,,0.43,WUHU21623XXSP,2013-02-01 04:45:00,
2013-01-31 23:50:00,19.6,13.3,29.69,WNW,296,4.0,10.3,76,0.00,,,0.43,WUHU21623XXSP,2013-02-01 04:50:00,
2013-01-31 23:55:00,19.6,13.3,29.69,WSW,258,3.9,8.5,76,0.00,,,0.43,WUHU21623XXSP,2013-02-01 04:55:00,